createdAt,value
2017-12-03T00:00:52.655Z,23.55
2017-12-03T00:03:20.191Z,21.45
2017-12-03T00:05:47.760Z,23.10
2017-12-03T00:08:15.312Z,23.90
2017-12-03T00:10:43.633Z,22.30
2017-12-03T00:13:11.161Z,23.52
2017-12-03T00:15:38.689Z,22.95
2017-12-03T00:18:06.232Z,22.77
2017-12-03T00:20:33.781Z,24.37
2017-12-03T00:23:01.427Z,21.75
2017-12-03T00:25:28.991Z,20.27
2017-12-03T00:27:56.535Z,22.87
2017-12-03T00:30:24.065Z,22.60
2017-12-03T00:32:52.391Z,23.77
2017-12-03T00:35:19.938Z,20.95
2017-12-03T00:37:47.469Z,20.33
2017-12-03T00:40:15.795Z,20.60
2017-12-03T00:42:43.323Z,22.08
2017-12-03T00:45:11.626Z,20.88
2017-12-03T00:47:39.172Z,20.83
2017-12-03T00:50:06.692Z,20.25
2017-12-03T00:52:34.220Z,19.42
2017-12-03T00:55:01.763Z,19.17
2017-12-03T00:57:29.302Z,19.62
2017-12-03T00:59:57.619Z,19.33
2017-12-03T01:02:25.187Z,20.17
2017-12-03T01:04:52.736Z,18.52
2017-12-03T01:07:20.284Z,18.60
2017-12-03T01:09:47.822Z,20.50
2017-12-03T01:12:16.160Z,19.37
2017-12-03T01:14:43.686Z,18.70
2017-12-03T01:17:11.231Z,19.02
2017-12-03T01:19:39.541Z,20.30
2017-12-03T01:22:07.122Z,21.08
2017-12-03T01:24:34.680Z,20.30
2017-12-03T01:27:02.231Z,19.48
2017-12-03T01:29:29.777Z,19.02
2017-12-03T01:31:57.349Z,20.42
2017-12-03T01:34:24.909Z,19.40
2017-12-03T01:36:52.452Z,19.27
2017-12-03T01:39:20.016Z,20.17
2017-12-03T01:41:47.558Z,18.40
2017-12-03T01:44:15.898Z,17.50
2017-12-03T01:46:43.443Z,18.90
2017-12-03T01:49:10.964Z,20.10
2017-12-03T01:51:39.292Z,20.60
2017-12-03T01:54:06.821Z,19.35
2017-12-03T01:56:34.379Z,19.92
2017-12-03T01:59:01.956Z,19.52
2017-12-03T02:01:29.501Z,17.83
2017-12-03T02:03:57.029Z,18.08
2017-12-03T02:06:24.589Z,15.75
2017-12-03T02:08:52.139Z,18.67
2017-12-03T02:11:19.694Z,18.75
2017-12-03T02:13:47.255Z,17.85
2017-12-03T02:16:15.618Z,16.70
2017-12-03T02:18:43.121Z,18.42
2017-12-03T02:21:10.687Z,18.27
2017-12-03T02:23:38.266Z,18.35
2017-12-03T02:26:05.809Z,19.67
2017-12-03T02:28:33.362Z,17.92
2017-12-03T02:31:00.889Z,15.63
2017-12-03T02:33:28.426Z,17.40
2017-12-03T02:35:55.991Z,16.25
2017-12-03T02:38:23.535Z,18.98
2017-12-03T02:40:51.829Z,16.50
2017-12-03T02:43:19.408Z,16.15
2017-12-03T02:45:46.956Z,17.12
2017-12-03T02:48:14.499Z,17.77
2017-12-03T02:50:42.836Z,18.45
2017-12-03T02:53:10.370Z,16.67
2017-12-03T02:55:37.913Z,17.15
2017-12-03T02:58:05.472Z,16.83
2017-12-03T03:00:32.999Z,17.35
2017-12-03T03:03:00.541Z,18.52
2017-12-03T03:05:28.877Z,16.10
2017-12-03T03:07:56.528Z,17.50
2017-12-03T03:10:24.833Z,16.45
2017-12-03T03:12:52.383Z,16.98
2017-12-03T03:15:19.913Z,16.05
2017-12-03T03:17:48.245Z,15.95
2017-12-03T03:20:15.788Z,17.52
2017-12-03T03:22:43.354Z,18.73
2017-12-03T03:25:10.898Z,18.77
2017-12-03T03:27:39.221Z,16.70
2017-12-03T03:30:06.752Z,17.00
2017-12-03T03:32:34.318Z,19.48
2017-12-03T03:35:01.860Z,19.70
2017-12-03T03:37:30.160Z,16.83
2017-12-03T03:39:57.710Z,17.52
2017-12-03T03:42:25.233Z,17.70
2017-12-03T03:44:52.777Z,18.52
2017-12-03T03:47:20.329Z,17.98
2017-12-03T03:49:47.875Z,18.75
2017-12-03T03:52:15.424Z,17.80
2017-12-03T03:54:42.987Z,17.40
2017-12-03T03:57:10.518Z,18.00
2017-12-03T03:59:38.817Z,19.62
2017-12-03T04:02:06.370Z,18.12
2017-12-03T04:04:34.675Z,17.92
2017-12-03T04:07:02.224Z,17.45
2017-12-03T04:09:29.779Z,18.00
2017-12-03T04:11:57.322Z,18.00
2017-12-03T04:14:25.651Z,16.12
2017-12-03T04:16:53.177Z,16.75
2017-12-03T04:19:21.509Z,16.15
2017-12-03T04:21:49.036Z,18.55
2017-12-03T04:24:16.591Z,14.68
2017-12-03T04:26:44.166Z,17.35
2017-12-03T04:29:11.696Z,17.83
2017-12-03T04:31:40.012Z,17.05
2017-12-03T04:34:07.581Z,18.02
2017-12-03T04:36:35.113Z,16.00
2017-12-03T04:39:02.669Z,16.85
2017-12-03T04:41:30.239Z,17.87
2017-12-03T04:43:57.788Z,17.90
2017-12-03T04:46:26.120Z,17.48
2017-12-03T04:48:53.675Z,17.00
2017-12-03T04:51:21.244Z,18.67
2017-12-03T04:53:48.786Z,17.15
2017-12-03T04:56:16.351Z,17.50
2017-12-03T04:58:43.902Z,17.60
2017-12-03T05:01:11.499Z,15.60
2017-12-03T05:03:39.037Z,15.43
2017-12-03T05:06:06.570Z,17.83
2017-12-03T05:08:34.124Z,17.25
2017-12-03T05:11:01.677Z,15.30
2017-12-03T05:13:29.982Z,16.05
2017-12-03T05:15:57.547Z,15.60
2017-12-03T05:18:25.096Z,17.58
2017-12-03T05:20:52.644Z,14.82
2017-12-03T05:23:20.221Z,16.40
2017-12-03T05:25:47.767Z,16.10
2017-12-03T05:28:16.092Z,16.02
2017-12-03T05:30:43.671Z,16.35
2017-12-03T05:33:11.213Z,18.27
2017-12-03T05:35:38.787Z,16.65
2017-12-03T05:38:06.318Z,16.20
2017-12-03T05:40:33.873Z,16.60
2017-12-03T05:43:01.403Z,16.80
2017-12-03T05:45:29.741Z,17.33
2017-12-03T05:47:57.272Z,16.42
2017-12-03T05:50:25.590Z,16.80
2017-12-03T05:52:53.143Z,17.55
2017-12-03T05:55:20.670Z,15.30
2017-12-03T05:57:48.229Z,15.20
2017-12-03T06:00:16.583Z,16.80
2017-12-03T06:02:44.912Z,17.05
2017-12-03T06:05:12.510Z,15.30
2017-12-03T06:07:40.050Z,15.93
2017-12-03T06:10:07.627Z,16.45
2017-12-03T06:12:35.161Z,15.77
2017-12-03T06:15:02.721Z,16.15
2017-12-03T06:17:30.253Z,15.38
2017-12-03T06:19:58.572Z,16.17
2017-12-03T06:22:26.906Z,15.90
2017-12-03T06:24:55.231Z,16.62
2017-12-03T06:27:22.768Z,16.25
2017-12-03T06:29:50.330Z,16.05
2017-12-03T06:32:17.917Z,16.37
2017-12-03T06:34:45.466Z,16.48
2017-12-03T06:37:13.039Z,16.67
2017-12-03T06:39:40.573Z,16.85
2017-12-03T06:42:08.117Z,17.15
2017-12-03T06:44:36.450Z,18.10
2017-12-03T06:47:04.741Z,16.62
2017-12-03T06:49:32.280Z,16.23
2017-12-03T06:51:59.863Z,16.35
2017-12-03T06:54:27.389Z,15.60
2017-12-03T06:56:54.975Z,17.25
2017-12-03T06:59:22.564Z,19.02
2017-12-03T07:01:50.158Z,18.45
2017-12-03T07:04:17.695Z,17.98
2017-12-03T07:06:46.012Z,16.77
2017-12-03T07:09:13.593Z,16.92
2017-12-03T07:11:41.121Z,18.12
2017-12-03T07:14:08.661Z,16.23
2017-12-03T07:16:36.985Z,17.73
2017-12-03T07:19:04.520Z,16.20
2017-12-03T07:21:32.825Z,16.92
2017-12-03T07:24:00.397Z,17.37
2017-12-03T07:26:28.727Z,16.25
2017-12-03T07:28:57.030Z,16.83
2017-12-03T07:31:24.610Z,16.95
2017-12-03T07:33:52.157Z,17.23
2017-12-03T07:36:19.770Z,16.40
2017-12-03T07:38:47.306Z,15.30
2017-12-03T07:41:14.895Z,16.02
2017-12-03T07:43:42.416Z,16.48
2017-12-03T07:46:09.985Z,17.23
2017-12-03T07:48:37.529Z,16.10
2017-12-03T07:51:05.072Z,16.27
2017-12-03T07:53:33.393Z,16.50
2017-12-03T07:56:00.916Z,16.40
2017-12-03T07:58:28.470Z,17.33
2017-12-03T08:00:56.760Z,17.50
2017-12-03T08:03:24.294Z,16.67
2017-12-03T08:05:51.850Z,17.60
2017-12-03T08:08:19.390Z,15.85
2017-12-03T08:10:46.930Z,17.45
2017-12-03T08:13:14.594Z,18.20
2017-12-03T08:15:42.174Z,17.75
2017-12-03T08:18:09.725Z,17.45
2017-12-03T08:20:37.257Z,16.58
2017-12-03T08:23:04.807Z,19.15
2017-12-03T08:25:33.101Z,18.75
2017-12-03T08:28:00.652Z,18.10
2017-12-03T08:30:28.987Z,17.45
2017-12-03T08:32:56.546Z,18.05
2017-12-03T08:35:24.110Z,17.42
2017-12-03T08:37:51.637Z,18.62
2017-12-03T08:40:19.189Z,19.00
2017-12-03T08:42:46.721Z,18.75
2017-12-03T08:45:15.042Z,17.77
2017-12-03T08:47:42.621Z,17.62
2017-12-03T08:50:10.168Z,18.65
2017-12-03T08:52:37.706Z,16.95
2017-12-03T08:55:05.265Z,17.95
2017-12-03T08:57:32.814Z,18.10
2017-12-03T09:00:01.109Z,18.25
2017-12-03T09:02:28.665Z,16.15
2017-12-03T09:04:56.964Z,17.73
2017-12-03T09:07:24.500Z,17.55
2017-12-03T09:09:52.833Z,16.83
2017-12-03T09:12:20.374Z,16.58
2017-12-03T09:14:47.932Z,16.17
2017-12-03T09:17:15.474Z,17.70
2017-12-03T09:19:42.998Z,16.85
2017-12-03T09:22:10.601Z,17.90
2017-12-03T09:24:38.147Z,18.60
2017-12-03T09:27:06.437Z,17.23
2017-12-03T09:29:33.980Z,17.80
2017-12-03T09:32:02.300Z,17.23
2017-12-03T09:34:29.855Z,17.37
2017-12-03T09:36:57.429Z,17.73
2017-12-03T09:39:24.990Z,17.12
2017-12-03T09:41:52.541Z,16.48
2017-12-03T09:44:20.065Z,17.05
2017-12-03T09:46:48.419Z,17.25
2017-12-03T09:49:15.967Z,17.60
2017-12-03T09:51:43.538Z,17.23
2017-12-03T09:54:11.093Z,17.15
2017-12-03T09:56:38.620Z,17.45
2017-12-03T09:59:06.194Z,17.75
2017-12-03T10:01:33.768Z,17.55
2017-12-03T10:04:01.322Z,16.42
2017-12-03T10:06:28.909Z,16.08
2017-12-03T10:08:56.461Z,18.85
2017-12-03T10:11:24.000Z,19.45
2017-12-03T10:13:51.557Z,17.55
2017-12-03T10:16:19.133Z,17.70
2017-12-03T10:18:46.706Z,17.52
2017-12-03T10:21:14.252Z,18.70
2017-12-03T10:23:41.812Z,16.30
2017-12-03T10:26:09.368Z,17.90
2017-12-03T10:28:36.909Z,18.10
2017-12-03T10:31:04.706Z,17.55
2017-12-03T10:33:32.296Z,19.50
2017-12-03T10:35:59.850Z,18.60
2017-12-03T10:38:27.400Z,18.85
2017-12-03T10:40:54.944Z,20.20
2017-12-03T10:43:22.515Z,19.35
2017-12-03T10:45:50.049Z,20.48
2017-12-03T10:48:17.604Z,19.37
2017-12-03T10:50:45.935Z,18.12
2017-12-03T10:53:13.472Z,19.23
2017-12-03T10:55:41.053Z,19.37
2017-12-03T10:58:08.610Z,20.05
2017-12-03T11:00:36.169Z,20.20
2017-12-03T11:03:04.440Z,19.52
2017-12-03T11:05:31.987Z,18.70
2017-12-03T11:07:59.567Z,20.17
2017-12-03T11:10:27.101Z,21.95
2017-12-03T11:12:54.633Z,20.40
2017-12-03T11:15:22.204Z,20.33
2017-12-03T11:17:50.520Z,20.42
2017-12-03T11:20:18.079Z,18.85
2017-12-03T11:22:45.611Z,18.58
2017-12-03T11:25:13.908Z,21.02
2017-12-03T11:27:41.471Z,19.00
2017-12-03T11:30:09.019Z,19.12
2017-12-03T11:32:37.361Z,19.30
2017-12-03T11:35:04.978Z,19.02
2017-12-03T11:37:32.519Z,19.08
2017-12-03T11:40:00.837Z,18.70
2017-12-03T11:42:28.384Z,20.33
2017-12-03T11:44:55.957Z,21.02
2017-12-03T11:47:23.503Z,20.00
2017-12-03T11:49:51.030Z,20.52
2017-12-03T11:52:19.340Z,19.67
2017-12-03T11:54:46.890Z,19.40
2017-12-03T11:57:15.223Z,19.55
2017-12-03T11:59:42.865Z,20.62
2017-12-03T12:02:10.427Z,20.20
2017-12-03T12:04:37.953Z,20.45
2017-12-03T12:07:06.300Z,20.45
2017-12-03T12:09:33.829Z,17.85
2017-12-03T12:12:01.357Z,21.05
2017-12-03T12:14:29.674Z,17.35
2017-12-03T12:16:57.196Z,19.80
2017-12-03T12:19:25.543Z,17.10
2017-12-03T12:21:53.074Z,19.45
2017-12-03T12:24:20.615Z,18.45
2017-12-03T12:26:48.159Z,17.92
2017-12-03T12:29:16.457Z,19.08
2017-12-03T12:31:44.035Z,18.52
2017-12-03T12:34:11.583Z,19.20
2017-12-03T12:36:39.127Z,18.55
2017-12-03T12:39:07.446Z,18.27
2017-12-03T12:41:34.987Z,16.08
2017-12-03T12:44:02.545Z,17.33
2017-12-03T12:46:30.091Z,17.87
2017-12-03T12:48:58.408Z,17.00
2017-12-03T12:51:25.974Z,16.75
2017-12-03T12:53:53.506Z,17.10
2017-12-03T12:56:21.167Z,17.15
2017-12-03T12:58:48.719Z,16.83
2017-12-03T13:01:17.082Z,14.82
2017-12-03T13:03:45.393Z,16.75
2017-12-03T13:06:12.940Z,16.75
2017-12-03T13:08:41.272Z,18.05
2017-12-03T13:11:08.797Z,16.90
2017-12-03T13:13:36.414Z,15.07
2017-12-03T13:16:03.991Z,17.00
2017-12-03T13:18:32.815Z,16.50
2017-12-03T13:21:00.383Z,16.02
2017-12-03T13:23:27.920Z,15.85
2017-12-03T13:25:56.241Z,15.65
2017-12-03T13:28:23.788Z,15.25
2017-12-03T13:30:51.336Z,17.40
2017-12-03T13:33:18.971Z,15.48
2017-12-03T13:35:47.288Z,16.17
2017-12-03T13:38:14.861Z,14.60
2017-12-03T13:40:42.413Z,15.93
2017-12-03T13:43:10.047Z,15.90
2017-12-03T13:45:38.364Z,17.50
2017-12-03T13:48:05.939Z,16.70
2017-12-03T13:50:33.474Z,17.73
2017-12-03T13:53:01.017Z,16.52
2017-12-03T13:55:28.562Z,15.52
2017-12-03T13:57:56.878Z,14.57
2017-12-03T14:00:24.516Z,15.65
2017-12-03T14:02:52.841Z,16.40
2017-12-03T14:05:20.446Z,14.05
2017-12-03T14:07:48.778Z,13.45
2017-12-03T14:10:16.302Z,12.80
2017-12-03T14:12:44.624Z,12.27
2017-12-03T14:15:12.229Z,12.37
2017-12-03T14:17:40.551Z,13.30
2017-12-03T14:20:08.102Z,12.05
2017-12-03T14:22:35.633Z,12.60
2017-12-03T14:25:03.954Z,12.10
2017-12-03T14:27:31.499Z,11.07
2017-12-03T14:29:59.072Z,12.45
2017-12-03T14:32:26.611Z,10.55
2017-12-03T14:34:54.959Z,10.38
2017-12-03T14:37:22.502Z,11.00
2017-12-03T14:39:50.053Z,10.65
2017-12-03T14:42:17.610Z,11.18
2017-12-03T14:44:45.156Z,11.60
2017-12-03T14:47:12.753Z,10.70
2017-12-03T14:49:40.278Z,11.45
2017-12-03T14:52:07.827Z,11.55
2017-12-03T14:54:35.395Z,10.90
2017-12-03T14:57:02.920Z,11.15
2017-12-03T14:59:30.485Z,10.07
2017-12-03T15:01:58.789Z,12.02
2017-12-03T15:04:27.088Z,10.48
2017-12-03T15:06:55.401Z,12.18
2017-12-03T15:09:22.964Z,11.15
2017-12-03T15:11:50.522Z,12.07
2017-12-03T15:14:18.215Z,11.80
2017-12-03T15:16:45.753Z,12.32
2017-12-03T15:19:13.307Z,12.55
2017-12-03T15:21:40.874Z,15.00
2017-12-03T15:24:08.434Z,13.13
2017-12-03T15:26:36.005Z,12.82
2017-12-03T15:29:04.383Z,14.40
2017-12-03T15:31:31.927Z,13.85
2017-12-03T15:33:59.500Z,14.85
2017-12-03T15:36:27.030Z,13.75
2017-12-03T15:38:54.595Z,13.05
2017-12-03T15:41:22.115Z,14.80
2017-12-03T15:43:50.428Z,14.63
2017-12-03T15:46:18.000Z,15.30
2017-12-03T15:48:45.575Z,15.27
2017-12-03T15:51:13.134Z,14.90
2017-12-03T15:53:40.665Z,16.30
2017-12-03T15:56:08.217Z,16.17
2017-12-03T15:58:36.530Z,16.05
2017-12-03T16:01:04.103Z,18.40
2017-12-03T16:03:31.651Z,16.42
2017-12-03T16:05:59.238Z,17.30
2017-12-03T16:08:26.772Z,18.00
2017-12-03T16:10:54.325Z,18.60
2017-12-03T16:13:21.859Z,17.33
2017-12-03T16:15:50.149Z,19.65
2017-12-03T16:18:17.702Z,20.98
2017-12-03T16:20:46.015Z,20.52
2017-12-03T16:23:13.574Z,18.65
2017-12-03T16:25:41.137Z,21.33
2017-12-03T16:28:08.712Z,19.75
2017-12-03T16:30:36.253Z,19.55
2017-12-03T16:33:03.781Z,18.73
2017-12-03T16:35:32.098Z,19.08
2017-12-03T16:37:59.619Z,20.45
2017-12-03T16:40:27.960Z,20.48
2017-12-03T16:42:55.489Z,21.75
2017-12-03T16:45:23.017Z,18.67
2017-12-03T16:47:51.353Z,18.75
2017-12-03T16:50:18.901Z,20.90
2017-12-03T16:52:46.465Z,21.25
2017-12-03T16:55:14.007Z,18.87
2017-12-03T16:57:41.569Z,18.95
2017-12-03T17:00:09.100Z,18.50
2017-12-03T17:02:37.415Z,20.45
2017-12-03T17:05:05.091Z,16.83
2017-12-03T17:07:32.763Z,18.83
2017-12-03T17:10:00.748Z,17.00
2017-12-03T17:12:28.369Z,18.05
2017-12-03T17:14:55.915Z,18.75
2017-12-03T17:17:24.254Z,18.15
2017-12-03T17:19:51.796Z,20.30
2017-12-03T17:22:19.387Z,19.50
2017-12-03T17:24:46.949Z,21.12
2017-12-03T17:27:14.550Z,19.80
2017-12-03T17:29:43.055Z,22.55
2017-12-03T17:32:10.695Z,22.70
2017-12-03T17:34:38.268Z,21.25
2017-12-03T17:37:05.981Z,20.23
2017-12-03T17:39:33.537Z,22.73
2017-12-03T17:42:01.303Z,21.23
2017-12-03T17:44:28.861Z,20.75
2017-12-03T17:46:57.432Z,22.95
2017-12-03T17:49:26.088Z,23.45
2017-12-03T17:51:55.463Z,25.23
2017-12-03T17:54:23.187Z,23.62
2017-12-03T17:56:50.750Z,25.20
2017-12-03T17:59:18.281Z,24.48
2017-12-03T18:01:46.582Z,24.30
2017-12-03T18:04:14.151Z,24.35
2017-12-03T18:06:41.691Z,27.48
2017-12-03T18:09:09.332Z,25.67
2017-12-03T18:11:37.693Z,27.62
2017-12-03T18:14:05.212Z,28.55
2017-12-03T18:16:32.766Z,26.70
2017-12-03T18:19:00.305Z,27.42
2017-12-03T18:21:28.633Z,25.30
2017-12-03T18:23:56.185Z,27.62
2017-12-03T18:26:23.721Z,26.65
2017-12-03T18:28:51.268Z,27.30
2017-12-03T18:31:19.602Z,27.62
2017-12-03T18:33:47.158Z,25.15
2017-12-03T18:36:14.695Z,27.80
2017-12-03T18:38:42.281Z,24.48
2017-12-03T18:41:09.843Z,26.15
2017-12-03T18:43:37.391Z,25.42
2017-12-03T18:46:04.965Z,25.20
2017-12-03T18:48:32.501Z,26.00
2017-12-03T18:51:00.026Z,26.87
2017-12-03T18:53:28.413Z,27.85
2017-12-03T18:55:55.923Z,23.73
2017-12-03T18:58:23.506Z,25.15
2017-12-03T19:00:51.049Z,26.02
2017-12-03T19:03:18.592Z,25.60
2017-12-03T19:05:46.164Z,28.38
2017-12-03T19:08:13.688Z,28.42
2017-12-03T19:10:42.023Z,27.80
2017-12-03T19:13:09.571Z,27.92
2017-12-03T19:15:37.136Z,28.52
2017-12-03T19:18:04.685Z,26.65
2017-12-03T19:20:32.221Z,26.77
2017-12-03T19:23:00.544Z,25.25
2017-12-03T19:25:28.072Z,27.40
2017-12-03T19:27:55.627Z,25.85
2017-12-03T19:30:23.177Z,26.75
2017-12-03T19:32:51.488Z,27.50
2017-12-03T19:35:19.059Z,27.87
2017-12-03T19:37:46.597Z,29.05
2017-12-03T19:40:14.149Z,28.95
2017-12-03T19:42:42.465Z,28.62
2017-12-03T19:45:10.016Z,28.23
2017-12-03T19:47:37.571Z,30.35
2017-12-03T19:50:05.093Z,28.90
2017-12-03T19:52:33.386Z,28.45
2017-12-03T19:55:01.723Z,27.80
2017-12-03T19:57:29.258Z,27.27
2017-12-03T19:59:56.835Z,27.77
2017-12-03T20:02:24.387Z,30.17
2017-12-03T20:04:51.943Z,26.65
2017-12-03T20:07:19.509Z,28.08
2017-12-03T20:09:47.029Z,27.25
2017-12-03T20:12:15.351Z,27.15
2017-12-03T20:14:42.912Z,28.98
2017-12-03T20:17:10.453Z,28.77
2017-12-03T20:19:38.003Z,27.35
2017-12-03T20:22:06.298Z,27.20
2017-12-03T20:24:33.875Z,30.88
2017-12-03T20:27:01.421Z,27.35
2017-12-03T20:29:28.949Z,26.80
2017-12-03T20:31:57.297Z,30.08
2017-12-03T20:34:24.847Z,28.60
2017-12-03T20:36:52.435Z,26.00
2017-12-03T20:39:19.981Z,28.27
2017-12-03T20:41:47.524Z,30.05
2017-12-03T20:44:15.091Z,29.30
2017-12-03T20:46:42.630Z,30.35
2017-12-03T20:49:10.307Z,29.10
2017-12-03T20:51:37.859Z,28.70
2017-12-03T20:54:05.401Z,30.52
2017-12-03T20:56:33.761Z,27.92
2017-12-03T20:59:01.288Z,28.38
2017-12-03T21:01:28.849Z,27.08
2017-12-03T21:03:56.380Z,29.30
2017-12-03T21:06:23.933Z,29.05
2017-12-03T21:08:51.490Z,28.17
2017-12-03T21:11:19.822Z,32.83
2017-12-03T21:13:47.364Z,25.23
2017-12-03T21:16:14.924Z,25.52
2017-12-03T21:18:42.578Z,26.50
2017-12-03T21:21:10.164Z,26.23
2017-12-03T21:23:37.736Z,25.55
2017-12-03T21:26:05.266Z,27.08
2017-12-03T21:28:32.817Z,23.92
2017-12-03T21:31:00.368Z,26.23
2017-12-03T21:33:27.917Z,28.80
2017-12-03T21:35:56.265Z,27.75
2017-12-03T21:38:23.812Z,26.20
2017-12-03T21:40:51.377Z,27.00
2017-12-03T21:43:18.938Z,26.50
2017-12-03T21:45:46.480Z,28.17
2017-12-03T21:48:14.042Z,24.98
2017-12-03T21:50:41.589Z,25.40
2017-12-03T21:53:09.148Z,27.73
2017-12-03T21:55:36.710Z,28.30
2017-12-03T21:58:04.241Z,25.77
2017-12-03T22:00:32.564Z,25.27
2017-12-03T22:03:00.085Z,24.35
2017-12-03T22:05:28.381Z,24.45
2017-12-03T22:07:56.691Z,23.27
2017-12-03T22:10:24.228Z,23.40
2017-12-03T22:12:51.793Z,24.80
2017-12-03T22:15:19.355Z,25.08
2017-12-03T22:17:46.907Z,24.85
2017-12-03T22:20:15.237Z,24.98
2017-12-03T22:22:42.765Z,24.30
2017-12-03T22:25:10.392Z,24.87
2017-12-03T22:27:37.903Z,24.87
2017-12-03T22:30:05.434Z,26.60
2017-12-03T22:32:33.001Z,23.80
2017-12-03T22:35:00.534Z,26.23
2017-12-03T22:37:28.860Z,26.73
2017-12-03T22:39:56.426Z,26.45
2017-12-03T22:42:23.957Z,28.25
2017-12-03T22:44:51.501Z,27.15
2017-12-03T22:47:19.796Z,25.95
2017-12-03T22:49:47.364Z,25.88
2017-12-03T22:52:14.922Z,24.98
2017-12-03T22:54:42.472Z,26.17
2017-12-03T22:57:10.808Z,27.92
2017-12-03T22:59:38.356Z,26.48
2017-12-03T23:02:05.928Z,24.70
2017-12-03T23:04:33.457Z,25.98
2017-12-03T23:07:01.007Z,24.17
2017-12-03T23:09:29.325Z,26.02
2017-12-03T23:11:56.868Z,25.48
2017-12-03T23:14:24.448Z,23.83
2017-12-03T23:16:51.983Z,23.70
2017-12-03T23:19:19.530Z,23.87
2017-12-03T23:21:47.859Z,24.02
2017-12-03T23:24:15.396Z,23.70
2017-12-03T23:26:42.965Z,23.27
2017-12-03T23:29:10.495Z,22.77
2017-12-03T23:31:38.808Z,25.33
2017-12-03T23:34:06.367Z,24.15
2017-12-03T23:36:33.925Z,24.23
2017-12-03T23:39:01.495Z,22.15
2017-12-03T23:41:29.018Z,24.60
2017-12-03T23:43:57.309Z,25.80
2017-12-03T23:46:24.875Z,25.00
2017-12-03T23:48:52.415Z,24.12
2017-12-03T23:51:20.741Z,27.58
2017-12-03T23:53:48.283Z,24.58
2017-12-03T23:56:15.828Z,25.10
2017-12-03T23:58:43.391Z,25.73
